Time;durP1;ratioP1;P1;durP2;ratioP2;P2;SDS_P1;SDS_P2;PMS_P1;PMS_P2;Temp;Humidity;BMP_temperature;BMP_pressure;BME280_temperature;BME280_humidity;BME280_pressure;Samples;Min_cycle;Max_cycle;Signal;HPM_P1;HPM_P2
2024/01/25 00:01:39;;;;;;;24.73;7.00;;;11.50;99.90;;;;;;5054813;28;20222;-70
2024/01/25 00:04:05;;;;;;;23.87;7.20;;;11.40;99.90;;;;;;5037904;28;20179;-69
2024/01/25 00:06:31;;;;;;;17.30;7.53;;;11.40;99.90;;;;;;5017039;28;20503;-69
2024/01/25 00:08:56;;;;;;;23.00;6.70;;;11.40;99.90;;;;;;5034707;28;20167;-69
2024/01/25 00:11:22;;;;;;;24.97;7.70;;;11.40;99.90;;;;;;5033974;28;20294;-69
2024/01/25 00:13:48;;;;;;;19.17;7.23;;;11.30;99.90;;;;;;5034166;28;20250;-70
2024/01/25 00:16:13;;;;;;;17.73;6.50;;;11.30;99.90;;;;;;5034156;28;20630;-68
2024/01/25 00:18:39;;;;;;;27.10;7.20;;;11.30;99.90;;;;;;5034572;28;20224;-69
2024/01/25 00:21:05;;;;;;;17.27;7.10;;;11.30;99.90;;;;;;5035381;28;20663;-68
2024/01/25 00:23:32;;;;;;;21.50;8.53;;;11.20;99.90;;;;;;5054742;28;20173;-68
2024/01/25 00:25:58;;;;;;;24.87;7.33;;;11.20;99.90;;;;;;5054456;28;20170;-69
2024/01/25 00:28:25;;;;;;;17.53;5.70;;;11.20;99.90;;;;;;5053554;28;20429;-69
2024/01/25 00:30:51;;;;;;;19.07;7.50;;;11.20;99.90;;;;;;5054049;28;20910;-68
2024/01/25 00:33:16;;;;;;;20.13;6.97;;;11.20;99.90;;;;;;5053251;28;20405;-68
2024/01/25 00:35:42;;;;;;;23.37;6.10;;;11.30;99.90;;;;;;5030586;28;20191;-69
2024/01/25 00:38:09;;;;;;;20.27;6.47;;;11.30;99.90;;;;;;5015783;28;20615;-69
2024/01/25 00:40:35;;;;;;;21.20;6.23;;;11.20;99.90;;;;;;5046331;28;20810;-69
2024/01/25 00:43:01;;;;;;;21.70;6.50;;;11.20;99.90;;;;;;5042723;28;20416;-66
2024/01/25 00:45:27;;;;;;;16.07;6.10;;;11.10;99.90;;;;;;5047942;28;20420;-70
2024/01/25 00:47:53;;;;;;;16.40;5.93;;;11.20;99.90;;;;;;5053997;28;20490;-70
2024/01/25 00:50:20;;;;;;;15.30;6.10;;;11.20;99.90;;;;;;5053198;28;20433;-69
2024/01/25 00:52:50;;;;;;;19.27;6.43;;;11.10;99.90;;;;;;5053372;28;20426;-69
2024/01/25 00:55:16;;;;;;;29.73;7.27;;;11.10;99.90;;;;;;5035146;28;20419;-69
2024/01/25 00:57:42;;;;;;;24.37;7.93;;;11.20;99.90;;;;;;5053782;28;20471;-69
2024/01/25 01:00:08;;;;;;;25.30;7.67;;;11.20;99.90;;;;;;5052886;28;20401;-68
2024/01/25 01:02:43;;;;;;;20.53;6.47;;;11.20;99.90;;;;;;5053740;28;20445;-69
2024/01/25 01:05:11;;;;;;;18.73;7.40;;;11.10;99.90;;;;;;5053053;28;20404;-69
2024/01/25 01:07:37;;;;;;;16.37;7.03;;;11.10;99.90;;;;;;5044075;28;20420;-69
2024/01/25 01:10:03;;;;;;;20.87;7.10;;;11.20;99.90;;;;;;5033647;28;20433;-63
2024/01/25 01:12:30;;;;;;;21.23;6.83;;;11.10;99.90;;;;;;5046749;28;20405;-69
2024/01/25 01:14:56;;;;;;;23.73;6.80;;;11.10;99.90;;;;;;5053109;28;20885;-69
2024/01/25 01:17:22;;;;;;;16.80;6.40;;;11.10;99.90;;;;;;5052251;28;20589;-69
2024/01/25 01:19:47;;;;;;;20.80;6.07;;;11.20;99.90;;;;;;5053455;28;20225;-69
2024/01/25 01:22:13;;;;;;;15.23;7.00;;;11.20;99.90;;;;;;5052310;28;20491;-69
2024/01/25 01:24:39;;;;;;;24.83;5.93;;;11.20;99.90;;;;;;5053521;28;20173;-68
2024/01/25 01:27:04;;;;;;;17.63;6.27;;;11.20;99.90;;;;;;5053002;28;20176;-63
2024/01/25 01:29:30;;;;;;;23.80;6.07;;;11.20;99.90;;;;;;5052096;28;20167;-69
2024/01/25 01:31:56;;;;;;;19.97;7.10;;;11.10;99.90;;;;;;5053001;28;20184;-70
2024/01/25 01:34:22;;;;;;;14.83;7.10;;;11.10;99.90;;;;;;5052328;28;20242;-70
2024/01/25 01:36:47;;;;;;;16.03;6.90;;;11.10;99.90;;;;;;5052950;28;20704;-69
2024/01/25 01:39:13;;;;;;;17.33;7.33;;;11.00;99.90;;;;;;5052179;28;20171;-68
2024/01/25 01:41:39;;;;;;;17.20;7.13;;;11.00;99.90;;;;;;5052511;28;20172;-69
2024/01/25 01:44:04;;;;;;;16.97;5.97;;;11.10;99.90;;;;;;5052771;28;20497;-61
2024/01/25 01:46:40;;;;;;;17.67;6.97;;;11.10;99.90;;;;;;5052389;28;20219;-69
2024/01/25 01:49:10;;;;;;;19.60;6.40;;;11.10;99.90;;;;;;5052354;28;20170;-67
2024/01/25 01:51:37;;;;;;;16.53;6.63;;;11.10;99.90;;;;;;5052925;28;20411;-69
2024/01/25 01:54:06;;;;;;;16.50;6.10;;;11.10;99.90;;;;;;5051356;28;20416;-69
2024/01/25 01:56:32;;;;;;;19.77;5.90;;;11.10;99.90;;;;;;5052278;28;20451;-69
2024/01/25 01:59:00;;;;;;;17.73;6.83;;;11.20;99.90;;;;;;5052695;28;20396;-70
2024/01/25 02:01:27;;;;;;;23.83;7.43;;;11.20;99.90;;;;;;5051505;28;20503;-69
2024/01/25 02:03:53;;;;;;;24.37;7.47;;;11.20;99.90;;;;;;5052590;28;20414;-69
2024/01/25 02:06:20;;;;;;;16.90;7.87;;;11.20;99.90;;;;;;5033212;28;20429;-69
2024/01/25 02:08:58;;;;;;;13.80;7.30;;;11.20;99.90;;;;;;5052720;28;20423;-70
2024/01/25 02:11:24;;;;;;;18.77;6.33;;;11.20;99.90;;;;;;5051736;28;20745;-69
2024/01/25 02:13:50;;;;;;;16.97;7.03;;;11.20;99.90;;;;;;5052268;28;20443;-70
2024/01/25 02:16:17;;;;;;;16.80;6.93;;;11.10;99.90;;;;;;5051647;28;20451;-69
2024/01/25 02:18:43;;;;;;;17.03;6.27;;;11.10;99.90;;;;;;5052717;28;20904;-70
2024/01/25 02:21:09;;;;;;;17.30;7.40;;;11.10;99.90;;;;;;5051518;28;20522;-64
2024/01/25 02:23:35;;;;;;;15.73;7.30;;;11.10;99.90;;;;;;5052063;28;20492;-70
2024/01/25 02:26:00;;;;;;;15.17;6.83;;;11.20;99.90;;;;;;5034592;28;20493;-70
2024/01/25 02:28:26;;;;;;;21.60;7.17;;;11.20;99.90;;;;;;5033744;28;20171;-70
2024/01/25 02:30:52;;;;;;;19.27;6.80;;;11.30;99.90;;;;;;5051996;28;20273;-70
2024/01/25 02:33:20;;;;;;;22.37;7.77;;;11.30;99.90;;;;;;5051532;28;20167;-70
2024/01/25 02:35:46;;;;;;;22.67;7.40;;;11.20;99.90;;;;;;5051840;28;20289;-70
2024/01/25 02:38:11;;;;;;;18.80;7.33;;;11.20;99.90;;;;;;5051604;28;20488;-63
2024/01/25 02:40:37;;;;;;;18.93;8.70;;;11.20;99.90;;;;;;5052117;28;20431;-70
2024/01/25 02:43:03;;;;;;;19.70;7.40;;;11.20;99.90;;;;;;5051489;28;20224;-69
2024/01/25 02:45:29;;;;;;;20.07;6.83;;;11.20;99.90;;;;;;5033528;28;20235;-69
2024/01/25 02:47:54;;;;;;;18.03;6.80;;;11.20;99.90;;;;;;5052215;28;20870;-69
2024/01/25 02:50:20;;;;;;;21.10;6.40;;;11.10;99.90;;;;;;5033597;28;20181;-69
2024/01/25 02:52:46;;;;;;;15.17;7.20;;;11.10;99.90;;;;;;5051879;28;20166;-69
2024/01/25 02:55:12;;;;;;;22.30;7.10;;;11.10;99.90;;;;;;5033423;28;20169;-62
2024/01/25 02:57:38;;;;;;;26.73;6.70;;;11.00;99.90;;;;;;5051942;28;20523;-69
2024/01/25 03:00:04;;;;;;;24.40;6.40;;;11.00;99.90;;;;;;5052196;28;20210;-70
2024/01/25 03:02:31;;;;;;;17.63;6.27;;;11.00;99.90;;;;;;5051172;28;20194;-69
2024/01/25 03:04:57;;;;;;;20.03;7.33;;;10.90;99.90;;;;;;5053843;28;20429;-70
2024/01/25 03:07:22;;;;;;;13.50;5.60;;;11.00;99.90;;;;;;5055095;28;20414;-69
2024/01/25 03:09:48;;;;;;;15.13;5.80;;;11.00;99.90;;;;;;5055455;28;20223;-69
2024/01/25 03:12:14;;;;;;;14.73;6.70;;;11.00;99.90;;;;;;5055019;28;20513;-65
2024/01/25 03:14:39;;;;;;;18.03;6.03;;;11.00;99.90;;;;;;5055826;28;20455;-69
2024/01/25 03:17:05;;;;;;;17.03;5.50;;;11.00;99.90;;;;;;5055631;28;20266;-70
2024/01/25 03:19:31;;;;;;;16.27;6.50;;;11.00;99.90;;;;;;5054658;28;20781;-69
2024/01/25 03:21:57;;;;;;;17.50;6.60;;;11.00;99.90;;;;;;5055686;28;20211;-69
2024/01/25 03:24:23;;;;;;;13.70;6.00;;;11.00;99.90;;;;;;5054122;28;20259;-69
2024/01/25 03:26:49;;;;;;;28.63;7.57;;;11.00;99.90;;;;;;5055282;28;20553;-69
2024/01/25 03:29:15;;;;;;;22.30;6.03;;;11.00;99.90;;;;;;5054134;28;20502;-66
2024/01/25 03:31:41;;;;;;;19.03;5.80;;;11.10;99.90;;;;;;5055498;28;20181;-69
2024/01/25 03:34:07;;;;;;;19.27;5.63;;;11.10;99.90;;;;;;5037738;28;20245;-70
2024/01/25 03:36:33;;;;;;;14.17;6.00;;;11.00;99.90;;;;;;5054534;28;20225;-69
2024/01/25 03:38:58;;;;;;;12.67;5.50;;;11.00;99.90;;;;;;5055290;28;20404;-69
2024/01/25 03:41:24;;;;;;;19.47;7.00;;;11.10;99.90;;;;;;5052655;28;20417;-69
2024/01/25 03:43:51;;;;;;;17.90;5.73;;;11.10;99.90;;;;;;5054914;28;20267;-70
2024/01/25 03:46:17;;;;;;;25.23;7.23;;;11.00;99.90;;;;;;5053948;28;20245;-68
2024/01/25 03:48:42;;;;;;;18.80;6.50;;;11.00;99.90;;;;;;5037428;28;20401;-67
2024/01/25 03:51:09;;;;;;;12.70;6.03;;;11.00;99.90;;;;;;5055121;28;20561;-70
2024/01/25 03:53:34;;;;;;;21.10;6.30;;;11.00;99.90;;;;;;5054037;28;20667;-69
2024/01/25 03:56:00;;;;;;;16.03;5.73;;;11.10;99.90;;;;;;5054896;28;20439;-69
2024/01/25 03:58:26;;;;;;;16.03;5.80;;;11.00;99.90;;;;;;5051896;28;20450;-70
2024/01/25 04:00:52;;;;;;;10.50;5.80;;;11.00;99.90;;;;;;5054875;28;20165;-70
2024/01/25 04:03:18;;;;;;;20.57;6.10;;;11.00;99.90;;;;;;5054098;28;20164;-69
2024/01/25 04:05:44;;;;;;;22.10;6.70;;;11.00;99.90;;;;;;5054838;28;20408;-69
2024/01/25 04:08:10;;;;;;;18.63;5.83;;;11.00;99.90;;;;;;5054837;28;20232;-69
2024/01/25 04:10:35;;;;;;;14.00;6.00;;;11.10;99.90;;;;;;5053331;28;20267;-68
2024/01/25 04:13:02;;;;;;;21.47;5.93;;;11.00;99.90;;;;;;5054611;28;20440;-69
2024/01/25 04:15:27;;;;;;;17.20;6.00;;;11.00;99.90;;;;;;5052925;28;20216;-69
2024/01/25 04:17:53;;;;;;;16.30;6.63;;;11.00;99.90;;;;;;5036596;28;20485;-69
2024/01/25 04:20:19;;;;;;;20.20;7.90;;;11.00;99.90;;;;;;5053784;28;20562;-68
2024/01/25 04:22:45;;;;;;;19.73;8.20;;;10.90;99.90;;;;;;5053727;28;20722;-68
2024/01/25 04:25:11;;;;;;;15.20;6.50;;;10.90;99.90;;;;;;5053979;28;20204;-68
2024/01/25 04:27:40;;;;;;;30.13;6.53;;;10.90;99.90;;;;;;5035724;28;20420;-68
2024/01/25 04:30:07;;;;;;;17.47;6.30;;;10.90;99.90;;;;;;5054360;28;20180;-69
2024/01/25 04:32:33;;;;;;;10.80;5.50;;;10.90;99.90;;;;;;5053140;28;20755;-68
2024/01/25 04:34:59;;;;;;;18.53;5.67;;;10.80;99.90;;;;;;5053689;28;20411;-69
2024/01/25 04:37:25;;;;;;;17.57;6.23;;;10.80;99.90;;;;;;5053347;28;20496;-69
2024/01/25 04:39:51;;;;;;;23.30;6.30;;;10.70;99.90;;;;;;5054384;28;20790;-69
2024/01/25 04:42:17;;;;;;;14.20;5.60;;;10.70;99.90;;;;;;5053722;28;20388;-62
2024/01/25 04:44:43;;;;;;;16.97;7.47;;;10.70;99.90;;;;;;5052990;28;20917;-69
2024/01/25 04:47:09;;;;;;;15.27;6.40;;;10.60;99.90;;;;;;5053762;28;20502;-69
2024/01/25 04:49:35;;;;;;;19.10;6.60;;;10.60;99.90;;;;;;5053444;28;20947;-69
2024/01/25 04:52:01;;;;;;;13.77;5.73;;;10.50;99.90;;;;;;5053981;28;20403;-69
2024/01/25 04:54:27;;;;;;;13.53;6.07;;;10.50;99.90;;;;;;5052839;28;20400;-70
2024/01/25 04:56:53;;;;;;;15.87;4.80;;;10.50;99.90;;;;;;5053053;28;20647;-70
2024/01/25 04:59:18;;;;;;;19.43;5.67;;;10.60;99.90;;;;;;5053242;28;20830;-61
2024/01/25 05:01:44;;;;;;;16.23;5.27;;;10.50;99.90;;;;;;5053665;28;20396;-68
2024/01/25 05:04:10;;;;;;;15.77;6.53;;;10.50;99.90;;;;;;5035978;28;20269;-68
2024/01/25 05:06:36;;;;;;;16.40;7.17;;;10.50;99.90;;;;;;5053061;28;20181;-69
2024/01/25 05:09:02;;;;;;;22.13;5.80;;;10.50;99.90;;;;;;5053702;28;20654;-68
2024/01/25 05:11:28;;;;;;;18.20;5.10;;;10.50;99.90;;;;;;5025373;28;20747;-68
2024/01/25 05:13:54;;;;;;;10.50;5.07;;;10.40;99.90;;;;;;5033542;28;20441;-68
2024/01/25 05:16:20;;;;;;;15.53;5.30;;;10.40;99.90;;;;;;5033002;28;20202;-61
2024/01/25 05:18:46;;;;;;;33.20;6.67;;;10.40;99.90;;;;;;5033405;28;20641;-68
2024/01/25 05:21:11;;;;;;;17.83;4.67;;;10.40;99.90;;;;;;5037942;28;20176;-69
2024/01/25 05:23:37;;;;;;;17.30;4.90;;;10.30;99.90;;;;;;5052548;28;20278;-69
2024/01/25 05:26:03;;;;;;;24.50;6.70;;;10.30;99.90;;;;;;5053232;28;20180;-69
2024/01/25 05:28:29;;;;;;;15.83;5.53;;;10.30;99.90;;;;;;5052065;28;20257;-68
2024/01/25 05:30:54;;;;;;;20.53;7.60;;;10.30;99.90;;;;;;5053117;28;20430;-69
2024/01/25 05:33:20;;;;;;;17.80;5.40;;;10.30;99.90;;;;;;5052571;28;20227;-68
2024/01/25 05:35:46;;;;;;;16.37;7.10;;;10.30;99.90;;;;;;5053081;28;20619;-69
2024/01/25 05:38:12;;;;;;;17.13;6.60;;;10.30;99.90;;;;;;5053105;28;20183;-71
2024/01/25 05:40:37;;;;;;;19.03;5.40;;;10.30;99.90;;;;;;5051376;28;20610;-69
2024/01/25 05:43:03;;;;;;;16.30;5.57;;;10.30;99.90;;;;;;5052901;28;20171;-69
2024/01/25 05:45:30;;;;;;;17.57;6.80;;;10.20;99.90;;;;;;5052342;28;20188;-68
2024/01/25 05:47:55;;;;;;;12.60;7.43;;;10.20;99.90;;;;;;5052549;28;20446;-68
2024/01/25 05:50:21;;;;;;;12.53;7.20;;;10.20;99.90;;;;;;5027457;28;20452;-61
2024/01/25 05:52:47;;;;;;;18.80;5.77;;;10.20;99.90;;;;;;5032428;28;20167;-69
2024/01/25 05:55:14;;;;;;;21.73;7.90;;;10.20;99.90;;;;;;5015147;28;20750;-69
2024/01/25 05:57:43;;;;;;;16.37;7.53;;;10.20;99.90;;;;;;5031968;28;20793;-69
2024/01/25 06:00:11;;;;;;;15.60;5.83;;;10.20;99.90;;;;;;5033959;28;20472;-71
2024/01/25 06:02:37;;;;;;;16.93;7.33;;;10.20;99.90;;;;;;5023025;28;20414;-68
2024/01/25 06:05:03;;;;;;;16.43;6.63;;;10.20;99.90;;;;;;5052614;28;20846;-69
2024/01/25 06:07:28;;;;;;;23.33;7.03;;;10.20;99.90;;;;;;5051795;28;20181;-68
2024/01/25 06:09:54;;;;;;;25.23;6.90;;;10.10;99.90;;;;;;5052513;28;20400;-70
2024/01/25 06:12:20;;;;;;;20.50;8.53;;;10.10;99.90;;;;;;5042202;28;20262;-69
2024/01/25 06:14:45;;;;;;;18.13;7.63;;;10.10;99.90;;;;;;5031819;28;20225;-69
2024/01/25 06:17:11;;;;;;;22.23;6.73;;;10.10;99.90;;;;;;5045308;28;20546;-69
2024/01/25 06:19:37;;;;;;;20.97;9.50;;;10.10;99.90;;;;;;5051642;28;20528;-68
2024/01/25 06:22:03;;;;;;;18.60;8.67;;;10.10;99.90;;;;;;5033895;28;20413;-69
2024/01/25 06:24:29;;;;;;;23.10;10.20;;;10.10;99.90;;;;;;5017390;28;20177;-68
2024/01/25 06:26:54;;;;;;;34.23;17.50;;;10.10;99.90;;;;;;5051954;28;20428;-69
2024/01/25 06:29:20;;;;;;;33.80;18.60;;;10.10;99.90;;;;;;5034321;28;20629;-69
2024/01/25 06:31:46;;;;;;;33.10;19.37;;;10.10;99.90;;;;;;5037487;28;20277;-69
2024/01/25 06:34:12;;;;;;;25.27;16.67;;;10.00;99.90;;;;;;5014699;28;20171;-69
2024/01/25 06:36:38;;;;;;;22.70;10.57;;;10.00;99.90;;;;;;5040260;28;20455;-68
2024/01/25 06:39:04;;;;;;;21.07;9.40;;;10.00;99.90;;;;;;5051502;28;20509;-69
2024/01/25 06:41:30;;;;;;;17.87;7.50;;;10.00;99.90;;;;;;5050264;28;20617;-68
2024/01/25 06:43:56;;;;;;;15.93;7.40;;;10.00;99.90;;;;;;5034227;28;20238;-69
2024/01/25 06:46:22;;;;;;;25.03;8.23;;;10.00;99.90;;;;;;5034169;28;20418;-69
2024/01/25 06:48:49;;;;;;;21.83;6.90;;;10.00;99.90;;;;;;5032977;28;20176;-68
2024/01/25 06:51:14;;;;;;;20.70;6.50;;;10.00;99.90;;;;;;5034287;28;20169;-68
2024/01/25 06:53:40;;;;;;;18.50;7.30;;;10.00;99.90;;;;;;5051212;28;20408;-68
2024/01/25 06:56:06;;;;;;;16.63;7.07;;;10.00;99.90;;;;;;5034129;28;20268;-68
2024/01/25 06:58:32;;;;;;;19.60;7.30;;;10.00;99.90;;;;;;5049729;28;20180;-68
2024/01/25 07:00:58;;;;;;;24.80;6.60;;;9.90;99.90;;;;;;5051293;28;20429;-68
2024/01/25 07:03:24;;;;;;;27.17;8.37;;;9.90;99.90;;;;;;5051534;28;20507;-61
2024/01/25 07:05:50;;;;;;;16.43;5.90;;;9.90;99.90;;;;;;5051124;28;20492;-69
2024/01/25 07:08:16;;;;;;;16.70;7.70;;;9.90;99.90;;;;;;5051399;28;20556;-69
2024/01/25 07:10:42;;;;;;;17.00;5.43;;;9.90;99.90;;;;;;5050600;28;20259;-69
2024/01/25 07:13:08;;;;;;;21.60;7.90;;;9.80;99.90;;;;;;5050659;28;20167;-62
2024/01/25 07:15:34;;;;;;;20.67;6.37;;;9.80;99.90;;;;;;5043547;28;20475;-63
2024/01/25 07:17:59;;;;;;;14.60;7.50;;;9.80;99.90;;;;;;5033232;28;20421;-63
2024/01/25 07:20:25;;;;;;;22.43;7.17;;;9.80;99.90;;;;;;5036690;28;20502;-62
2024/01/25 07:22:51;;;;;;;19.30;8.90;;;9.90;99.90;;;;;;5039145;28;20640;-63
2024/01/25 07:25:17;;;;;;;21.73;9.70;;;9.80;99.90;;;;;;5026139;28;20226;-61
2024/01/25 07:27:46;;;;;;;28.50;8.40;;;9.80;99.90;;;;;;5042077;28;20182;-64
2024/01/25 07:30:13;;;;;;;16.33;6.57;;;9.80;99.90;;;;;;5033962;28;20251;-64
2024/01/25 07:32:41;;;;;;;22.03;8.80;;;9.80;99.90;;;;;;5041451;28;20472;-63
2024/01/25 07:35:11;;;;;;;14.90;8.13;;;9.80;99.90;;;;;;5040963;28;20417;-63
2024/01/25 07:37:37;;;;;;;25.10;10.50;;;9.80;99.90;;;;;;5037357;28;20487;-63
2024/01/25 07:40:06;;;;;;;26.77;11.30;;;9.80;99.90;;;;;;5039206;28;20411;-63
2024/01/25 07:42:32;;;;;;;30.97;11.20;;;9.80;99.90;;;;;;5043700;28;20429;-62
2024/01/25 07:44:58;;;;;;;21.77;11.03;;;9.80;99.90;;;;;;5035802;28;20427;-62
2024/01/25 07:47:24;;;;;;;25.03;12.47;;;9.90;99.90;;;;;;5034949;28;22073;-61
2024/01/25 07:49:49;;;;;;;31.60;14.73;;;9.80;99.90;;;;;;5050790;28;20178;-62
2024/01/25 07:52:15;;;;;;;29.17;13.60;;;9.80;99.90;;;;;;5054040;28;20175;-62
2024/01/25 07:54:41;;;;;;;32.50;15.00;;;9.80;99.90;;;;;;5054495;28;20251;-63
2024/01/25 07:57:07;;;;;;;34.40;14.17;;;9.90;99.90;;;;;;5045118;28;20452;-62
2024/01/25 07:59:33;;;;;;;29.83;13.37;;;9.90;99.90;;;;;;5035186;28;20184;-62
2024/01/25 08:01:59;;;;;;;32.80;16.83;;;9.90;99.90;;;;;;5044769;28;20409;-63
2024/01/25 08:04:24;;;;;;;34.17;15.40;;;9.90;99.90;;;;;;5054535;28;20172;-63
2024/01/25 08:06:52;;;;;;;33.07;14.87;;;9.90;99.90;;;;;;5050761;28;20171;-62
2024/01/25 08:09:18;;;;;;;35.63;15.30;;;9.90;99.90;;;;;;5050142;28;20178;-63
2024/01/25 08:11:44;;;;;;;29.20;16.63;;;10.00;99.90;;;;;;5047254;28;20744;-63
2024/01/25 08:14:11;;;;;;;29.07;16.23;;;10.00;99.90;;;;;;5018861;28;20461;-61
2024/01/25 08:16:37;;;;;;;29.00;18.20;;;10.00;99.90;;;;;;5034679;28;20499;-61
2024/01/25 08:19:03;;;;;;;32.57;16.00;;;10.50;99.90;;;;;;5038220;28;20416;-61
2024/01/25 08:21:28;;;;;;;32.73;17.77;;;11.00;99.90;;;;;;5037248;28;20412;-61
2024/01/25 08:23:54;;;;;;;33.37;16.30;;;11.50;99.90;;;;;;5058674;28;20456;-60
2024/01/25 08:26:20;;;;;;;32.40;17.03;;;11.90;99.90;;;;;;5062606;28;20173;-68
2024/01/25 08:28:46;;;;;;;34.87;17.73;;;12.20;99.90;;;;;;5066806;28;20182;-63
2024/01/25 08:31:12;;;;;;;29.07;15.93;;;12.20;99.90;;;;;;5061248;28;20466;-71
2024/01/25 08:33:44;;;;;;;33.43;17.23;;;12.10;99.90;;;;;;5053738;28;20417;-72
2024/01/25 08:36:10;;;;;;;33.73;15.97;;;11.90;99.90;;;;;;5041983;28;20438;-70
2024/01/25 08:38:36;;;;;;;41.93;18.70;;;11.80;99.90;;;;;;5043591;28;20413;-72
2024/01/25 08:41:02;;;;;;;33.90;18.17;;;11.50;99.90;;;;;;5042205;28;20432;-72
2024/01/25 08:43:28;;;;;;;47.93;15.30;;;11.40;99.90;;;;;;5045057;28;20458;-70
2024/01/25 08:45:54;;;;;;;34.33;17.63;;;11.20;99.90;;;;;;5050158;28;20424;-71
2024/01/25 08:48:20;;;;;;;34.53;18.27;;;11.10;99.90;;;;;;5053489;28;20617;-77
2024/01/25 08:50:46;;;;;;;31.03;17.27;;;10.90;99.90;;;;;;5052990;28;20400;-70
2024/01/25 08:53:12;;;;;;;40.80;16.43;;;10.80;99.90;;;;;;5041314;28;20858;-72
2024/01/25 08:55:38;;;;;;;40.70;17.67;;;10.70;99.90;;;;;;5050936;28;20890;-73
2024/01/25 08:58:04;;;;;;;43.60;19.07;;;10.70;99.90;;;;;;5045290;28;20814;-71
2024/01/25 09:00:30;;;;;;;34.60;16.70;;;10.70;99.90;;;;;;5051831;28;20423;-69
2024/01/25 09:02:56;;;;;;;35.10;16.30;;;10.60;99.90;;;;;;5052744;28;20624;-71
2024/01/25 09:05:22;;;;;;;32.07;15.60;;;10.60;99.90;;;;;;5041543;28;20413;-71
2024/01/25 09:07:47;;;;;;;31.57;18.47;;;10.60;99.90;;;;;;5034013;28;20417;-74
2024/01/25 09:10:13;;;;;;;31.80;15.70;;;10.60;99.90;;;;;;5036211;28;20886;-74
2024/01/25 09:12:39;;;;;;;37.90;17.70;;;10.50;99.90;;;;;;4999621;28;20474;-73
2024/01/25 09:15:05;;;;;;;490.70;266.07;;;10.50;99.90;;;;;;5044639;28;20285;-74
2024/01/25 09:17:31;;;;;;;121.73;62.97;;;10.60;99.90;;;;;;5053685;28;20249;-73
2024/01/25 09:20:00;;;;;;;37.87;19.73;;;10.60;99.90;;;;;;5053310;28;20469;-73
2024/01/25 09:22:26;;;;;;;41.20;15.97;;;10.70;99.90;;;;;;5053095;28;20895;-73
2024/01/25 09:24:53;;;;;;;25.43;14.00;;;10.80;99.90;;;;;;5016978;28;20594;-73
2024/01/25 09:27:19;;;;;;;29.87;15.17;;;10.80;99.90;;;;;;5040961;28;20184;-73
2024/01/25 09:29:44;;;;;;;26.00;13.90;;;11.00;99.90;;;;;;5050468;28;20939;-74
2024/01/25 09:32:10;;;;;;;26.47;13.93;;;11.00;99.90;;;;;;5053312;28;20166;-74
2024/01/25 09:34:38;;;;;;;25.37;14.13;;;11.00;99.90;;;;;;5052512;28;20810;-73
2024/01/25 09:37:04;;;;;;;26.80;14.00;;;11.10;99.90;;;;;;5033458;28;20200;-70
2024/01/25 09:39:31;;;;;;;26.73;14.53;;;11.20;99.90;;;;;;5050208;28;20515;-74
2024/01/25 09:41:58;;;;;;;22.23;13.07;;;11.20;99.90;;;;;;5046882;28;20423;-75
2024/01/25 09:44:24;;;;;;;29.27;14.13;;;11.30;99.90;;;;;;5019942;28;20433;-74
2024/01/25 09:46:51;;;;;;;27.33;14.80;;;11.30;99.90;;;;;;5014996;28;20401;-74
2024/01/25 09:49:17;;;;;;;32.70;13.83;;;11.20;99.90;;;;;;5015680;28;20759;-74
2024/01/25 09:51:43;;;;;;;31.50;13.90;;;11.30;99.90;;;;;;5032795;28;20408;-74
2024/01/25 09:54:10;;;;;;;23.60;12.90;;;11.30;99.90;;;;;;5033249;28;20831;-74
2024/01/25 09:56:35;;;;;;;26.27;12.67;;;11.30;99.90;;;;;;5032711;28;20926;-65
2024/01/25 09:59:03;;;;;;;22.50;12.10;;;11.30;99.90;;;;;;5032127;28;20408;-75
2024/01/25 10:01:34;;;;;;;27.77;12.10;;;11.30;99.90;;;;;;5032415;28;20166;-74
2024/01/25 10:04:00;;;;;;;26.93;13.03;;;11.30;99.90;;;;;;5015660;28;20825;-75
2024/01/25 10:06:26;;;;;;;22.73;11.27;;;11.30;99.90;;;;;;5033168;28;20480;-75
2024/01/25 10:08:53;;;;;;;24.27;12.37;;;11.30;99.90;;;;;;5014765;28;20426;-75
2024/01/25 10:11:19;;;;;;;30.20;11.40;;;11.30;99.90;;;;;;5032902;28;20385;-75
2024/01/25 10:13:45;;;;;;;20.43;10.20;;;11.30;99.90;;;;;;5031496;28;20452;-75
2024/01/25 10:16:16;;;;;;;23.33;9.87;;;11.20;99.90;;;;;;5033143;28;20455;-75
2024/01/25 10:18:43;;;;;;;21.83;11.40;;;11.20;99.90;;;;;;5014371;28;20966;-75
2024/01/25 10:21:13;;;;;;;17.33;9.40;;;11.20;99.90;;;;;;5033195;28;20545;-75
2024/01/25 10:23:39;;;;;;;27.10;13.30;;;11.20;99.90;;;;;;5032007;28;20761;-65
2024/01/25 10:26:07;;;;;;;20.00;10.20;;;11.20;99.90;;;;;;5032196;28;20409;-75
2024/01/25 10:28:35;;;;;;;18.33;9.57;;;11.10;99.90;;;;;;5032416;28;20949;-75
2024/01/25 10:31:04;;;;;;;21.33;9.87;;;11.10;99.90;;;;;;5032790;28;20417;-75
2024/01/25 10:33:30;;;;;;;20.17;8.97;;;11.00;99.90;;;;;;5032691;28;20432;-74
2024/01/25 10:36:03;;;;;;;20.60;10.60;;;10.90;99.90;;;;;;5031994;28;21161;-74
2024/01/25 10:38:35;;;;;;;23.77;10.50;;;10.90;99.90;;;;;;5015145;28;20401;-74
2024/01/25 10:41:04;;;;;;;21.00;10.70;;;10.80;99.90;;;;;;5032628;28;20425;-74
2024/01/25 10:43:33;;;;;;;19.20;9.67;;;10.80;99.90;;;;;;5032427;28;20412;-74
2024/01/25 10:45:59;;;;;;;24.50;9.70;;;10.80;99.90;;;;;;5031737;28;20885;-75
2024/01/25 10:48:26;;;;;;;23.40;10.40;;;10.80;99.90;;;;;;5032343;28;20749;-74
2024/01/25 10:50:56;;;;;;;19.57;11.10;;;10.80;99.90;;;;;;5031894;28;20412;-74
2024/01/25 10:53:23;;;;;;;17.93;9.63;;;10.90;99.90;;;;;;5032500;28;20403;-74
2024/01/25 10:55:49;;;;;;;18.00;8.60;;;10.80;99.90;;;;;;5032118;28;20405;-74
2024/01/25 10:58:16;;;;;;;26.33;9.80;;;10.90;99.90;;;;;;5032447;28;20489;-74
2024/01/25 11:01:01;;;;;;;20.37;9.50;;;10.90;99.90;;;;;;5031852;28;20409;-74
2024/01/25 11:03:27;;;;;;;21.03;9.67;;;10.90;99.90;;;;;;5032487;28;20404;-74
2024/01/25 11:05:56;;;;;;;16.93;9.10;;;10.90;99.90;;;;;;5031809;28;20407;-74
2024/01/25 11:08:23;;;;;;;19.97;8.60;;;11.00;99.90;;;;;;5032396;28;20401;-74
2024/01/25 11:10:54;;;;;;;24.93;10.70;;;11.10;99.90;;;;;;5014089;28;20829;-74
2024/01/25 11:13:27;;;;;;;18.03;9.10;;;11.30;99.90;;;;;;5032040;28;20441;-73
2024/01/25 11:15:53;;;;;;;24.53;11.57;;;11.40;99.90;;;;;;5031446;28;20416;-74
2024/01/25 11:18:18;;;;;;;21.80;10.50;;;11.50;99.90;;;;;;5014631;28;20425;-74
2024/01/25 11:20:47;;;;;;;22.70;10.90;;;11.70;99.90;;;;;;5031701;28;20177;-74
2024/01/25 11:23:16;;;;;;;24.20;9.63;;;11.90;99.90;;;;;;5014549;28;20611;-74
2024/01/25 11:25:48;;;;;;;24.73;11.00;;;12.10;99.90;;;;;;5033004;28;20394;-74
2024/01/25 11:28:19;;;;;;;22.07;11.03;;;12.30;99.90;;;;;;5036128;28;20398;-74
2024/01/25 11:30:45;;;;;;;24.20;10.00;;;12.50;99.90;;;;;;5035240;28;20490;-74
2024/01/25 11:33:12;;;;;;;20.37;10.30;;;12.60;99.90;;;;;;5035986;28;20755;-74
2024/01/25 11:35:37;;;;;;;23.87;10.60;;;12.70;99.90;;;;;;5035809;28;20406;-74
2024/01/25 11:38:03;;;;;;;21.83;9.13;;;12.80;99.90;;;;;;5017290;28;20415;-74
2024/01/25 11:40:31;;;;;;;21.80;9.60;;;12.80;99.90;;;;;;5035848;28;20403;-74
2024/01/25 11:42:57;;;;;;;17.50;9.00;;;12.80;99.90;;;;;;5017296;28;20888;-74
2024/01/25 11:45:22;;;;;;;21.00;10.13;;;12.90;99.90;;;;;;5035612;28;20554;-74
2024/01/25 11:47:49;;;;;;;21.07;9.20;;;12.80;99.90;;;;;;5035130;28;20180;-74
2024/01/25 11:50:15;;;;;;;25.90;9.17;;;12.80;99.90;;;;;;5035589;28;20178;-74
2024/01/25 11:52:41;;;;;;;19.50;7.30;;;12.80;99.90;;;;;;5035078;28;20400;-62
2024/01/25 11:55:08;;;;;;;17.40;8.33;;;12.70;99.90;;;;;;5035676;28;20408;-74
2024/01/25 11:57:40;;;;;;;16.67;8.17;;;12.70;99.90;;;;;;5035409;28;20274;-76
2024/01/25 12:00:09;;;;;;;23.20;8.43;;;12.70;99.90;;;;;;5035453;28;20475;-69
2024/01/25 12:02:39;;;;;;;14.80;7.40;;;12.70;99.90;;;;;;5035507;28;20405;-76
2024/01/25 12:05:06;;;;;;;24.30;8.87;;;12.70;99.90;;;;;;5034736;28;20403;-76
2024/01/25 12:07:32;;;;;;;24.40;8.90;;;12.70;99.90;;;;;;5017620;28;20426;-73
2024/01/25 12:10:07;;;;;;;17.03;7.90;;;12.70;99.90;;;;;;5034879;28;20465;-73
2024/01/25 12:12:35;;;;;;;23.27;8.50;;;12.60;99.90;;;;;;5035576;28;20562;-73
2024/01/25 12:15:03;;;;;;;16.67;8.00;;;12.60;99.90;;;;;;5052715;28;20449;-73
2024/01/25 12:17:33;;;;;;;17.47;7.20;;;12.60;99.90;;;;;;5063241;28;20501;-73
2024/01/25 12:20:00;;;;;;;15.37;7.80;;;12.60;99.90;;;;;;5068559;28;20473;-74
2024/01/25 12:22:29;;;;;;;18.87;7.17;;;12.50;99.90;;;;;;5071960;28;20401;-72
2024/01/25 12:24:56;;;;;;;19.93;8.37;;;12.50;99.90;;;;;;5074334;28;20881;-72
2024/01/25 12:27:23;;;;;;;18.67;7.70;;;12.50;99.90;;;;;;5074783;28;20493;-74
2024/01/25 12:29:53;;;;;;;16.60;6.90;;;12.50;99.90;;;;;;5074087;28;20873;-72
2024/01/25 12:32:20;;;;;;;22.70;7.37;;;12.50;99.90;;;;;;5074727;28;20411;-72